Time;durP1;ratioP1;P1;durP2;ratioP2;P2;SDS_P1;SDS_P2;PMS_P1;PMS_P2;Temp;Humidity;BMP_temperature;BMP_pressure;BME280_temperature;BME280_humidity;BME280_pressure;Samples;Min_cycle;Max_cycle;Signal;HPM_P1;HPM_P2
2021/11/02 00:00:14;;;;;;;9.82;7.60;;;7.40;99.90;;;;;;5086436;28;20600;-70
2021/11/02 00:02:44;;;;;;;9.77;7.60;;;7.50;99.90;;;;;;5069593;28;20051;-70
2021/11/02 00:05:09;;;;;;;12.93;8.25;;;7.50;99.90;;;;;;5083445;28;20076;-70
2021/11/02 00:07:35;;;;;;;10.20;7.80;;;7.40;99.90;;;;;;5068706;28;20075;-70
2021/11/02 00:10:03;;;;;;;9.27;7.68;;;7.40;99.90;;;;;;5094356;28;20140;-70
2021/11/02 00:12:29;;;;;;;9.40;7.80;;;7.40;99.90;;;;;;5053050;28;20089;-70
2021/11/02 00:14:55;;;;;;;8.55;7.25;;;7.40;99.90;;;;;;5064839;28;20038;-70
2021/11/02 00:17:24;;;;;;;9.73;7.72;;;7.30;99.90;;;;;;5037993;28;20036;-70
2021/11/02 00:19:54;;;;;;;10.13;8.25;;;7.30;99.90;;;;;;5048878;28;20048;-70
2021/11/02 00:22:21;;;;;;;11.98;8.48;;;7.20;99.90;;;;;;5082135;28;20086;-70
2021/11/02 00:27:25;;;;;;;11.55;9.43;;;7.00;99.90;;;;;;5068532;28;20060;-70
2021/11/02 00:29:55;;;;;;;11.55;10.35;;;7.10;99.90;;;;;;5045754;28;20051;-70
2021/11/02 00:32:21;;;;;;;13.25;10.25;;;7.00;99.90;;;;;;5064273;28;20048;-70
2021/11/02 00:34:47;;;;;;;14.73;11.65;;;7.00;99.90;;;;;;5049657;28;20052;-70
2021/11/02 00:37:13;;;;;;;14.07;11.30;;;7.00;99.90;;;;;;5108135;27;20507;-70
2021/11/02 00:39:38;;;;;;;12.43;10.70;;;7.00;99.90;;;;;;5065410;28;20040;-70
2021/11/02 00:42:04;;;;;;;14.70;10.35;;;7.00;99.90;;;;;;5077942;28;20135;-70
2021/11/02 00:44:30;;;;;;;14.80;10.70;;;7.00;99.90;;;;;;5080771;28;20055;-70
2021/11/02 00:46:56;;;;;;;15.00;10.60;;;7.00;99.90;;;;;;5086296;28;20056;-70
2021/11/02 00:49:24;;;;;;;12.65;11.18;;;7.00;99.90;;;;;;5085219;28;20143;-70
2021/11/02 00:51:51;;;;;;;12.05;10.30;;;6.90;99.90;;;;;;5070528;28;20048;-70
2021/11/02 00:54:17;;;;;;;16.52;11.77;;;6.90;99.90;;;;;;5080144;28;20131;-70
2021/11/02 00:56:43;;;;;;;12.50;11.20;;;6.80;99.90;;;;;;5071409;28;20119;-70
2021/11/02 00:59:09;;;;;;;12.43;11.00;;;6.80;99.90;;;;;;5062040;28;20089;-70
2021/11/02 01:01:36;;;;;;;12.88;11.10;;;6.80;99.90;;;;;;5070622;28;20048;-70
2021/11/02 01:04:05;;;;;;;12.18;10.57;;;6.80;99.90;;;;;;5055399;28;20036;-70
2021/11/02 01:06:36;;;;;;;12.10;10.38;;;6.80;99.90;;;;;;5066883;28;20121;-70
2021/11/02 01:09:07;;;;;;;11.98;10.50;;;6.70;99.90;;;;;;5065111;28;20068;-70
2021/11/02 01:11:33;;;;;;;16.52;13.43;;;6.80;99.90;;;;;;5068059;28;20080;-70
2021/11/02 01:13:59;;;;;;;18.70;12.70;;;6.70;99.90;;;;;;5069514;28;20078;-70
2021/11/02 01:16:25;;;;;;;15.00;12.90;;;6.70;99.90;;;;;;5081707;28;20119;-69
2021/11/02 01:18:57;;;;;;;14.40;12.15;;;6.70;99.90;;;;;;5085426;28;20412;-72
2021/11/02 01:21:23;;;;;;;15.45;13.73;;;6.70;99.90;;;;;;5037869;28;20045;-69
2021/11/02 01:23:49;;;;;;;16.02;13.48;;;6.80;99.90;;;;;;5062068;28;20048;-70
2021/11/02 01:26:15;;;;;;;16.65;13.30;;;6.80;99.90;;;;;;5066262;28;20063;-69
2021/11/02 01:28:41;;;;;;;15.77;14.05;;;6.80;99.90;;;;;;5067483;28;20492;-69
2021/11/02 01:31:07;;;;;;;16.80;13.85;;;6.80;99.90;;;;;;5072575;28;20037;-69
2021/11/02 01:33:33;;;;;;;17.38;13.27;;;6.80;99.90;;;;;;5039165;28;20043;-69
2021/11/02 01:35:59;;;;;;;15.38;13.77;;;6.80;99.90;;;;;;5078788;28;20044;-69
2021/11/02 01:38:25;;;;;;;17.25;13.27;;;6.80;99.90;;;;;;5069382;28;20075;-68
2021/11/02 01:40:54;;;;;;;18.70;14.05;;;6.70;99.90;;;;;;5085925;28;20511;-68
2021/11/02 01:43:21;;;;;;;17.25;14.65;;;6.70;99.90;;;;;;5051832;28;20041;-69
2021/11/02 01:45:49;;;;;;;18.08;14.55;;;6.70;99.90;;;;;;5080512;28;20082;-68
2021/11/02 01:48:23;;;;;;;17.60;15.48;;;6.70;99.90;;;;;;5077232;28;20052;-68
2021/11/02 01:50:49;;;;;;;17.20;13.95;;;6.70;99.90;;;;;;5076881;28;20068;-68
2021/11/02 01:53:16;;;;;;;15.23;13.57;;;6.70;99.90;;;;;;5069648;28;20093;-69
2021/11/02 01:55:42;;;;;;;16.92;14.43;;;6.70;99.90;;;;;;5067883;28;20063;-68
2021/11/02 01:58:10;;;;;;;16.90;14.63;;;6.60;99.90;;;;;;5043719;28;20097;-69
2021/11/02 02:00:36;;;;;;;16.35;14.02;;;6.70;99.90;;;;;;5079788;28;20049;-69
2021/11/02 02:03:21;;;;;;;19.48;14.85;;;6.70;99.90;;;;;;5067060;28;20052;-68
2021/11/02 02:05:52;;;;;;;15.38;12.98;;;6.70;99.90;;;;;;5061587;28;20087;-69
2021/11/02 02:08:52;;;;;;;16.10;14.07;;;6.70;99.90;;;;;;5078778;28;20494;-69
2021/11/02 02:11:46;;;;;;;16.27;14.53;;;6.70;99.90;;;;;;5064652;28;20056;-68
2021/11/02 02:14:54;;;;;;;17.17;15.40;;;6.70;99.90;;;;;;5050188;28;20298;-69
2021/11/02 02:17:31;;;;;;;25.48;16.35;;;6.70;99.90;;;;;;5051249;28;20052;-69
2021/11/02 02:20:07;;;;;;;17.67;15.43;;;6.70;99.90;;;;;;5069151;28;20051;-69
2021/11/02 02:23:06;;;;;;;15.25;13.40;;;6.60;99.90;;;;;;5065819;28;20487;-69
2021/11/02 02:25:45;;;;;;;18.30;14.27;;;6.60;99.90;;;;;;5051714;28;20617;-69
2021/11/02 02:28:23;;;;;;;19.65;16.35;;;6.60;99.90;;;;;;5068298;28;20044;-69
2021/11/02 02:31:16;;;;;;;18.42;14.65;;;6.60;99.90;;;;;;5066793;28;20144;-69
2021/11/02 02:33:45;;;;;;;19.05;14.60;;;6.60;99.90;;;;;;5062705;28;20064;-69
2021/11/02 02:36:12;;;;;;;19.73;14.98;;;6.60;99.90;;;;;;5034780;28;20662;-69
2021/11/02 02:38:44;;;;;;;15.00;11.33;;;6.60;99.90;;;;;;5051450;28;20052;-69
2021/11/02 02:41:11;;;;;;;15.53;13.87;;;6.60;99.90;;;;;;5034535;28;20036;-69
2021/11/02 02:43:41;;;;;;;17.58;13.02;;;6.50;99.90;;;;;;5050938;28;20041;-69
2021/11/02 02:46:08;;;;;;;17.38;13.65;;;6.50;99.90;;;;;;5065454;28;20044;-69
2021/11/02 02:48:34;;;;;;;17.70;13.38;;;6.50;99.90;;;;;;5067970;28;20095;-69
2021/11/02 02:51:02;;;;;;;18.30;13.63;;;6.40;99.90;;;;;;5065459;28;20052;-69
2021/11/02 02:53:30;;;;;;;16.63;13.88;;;6.40;99.90;;;;;;5050741;28;20123;-69
2021/11/02 02:56:01;;;;;;;16.05;12.68;;;6.30;99.90;;;;;;5067770;28;20044;-69
2021/11/02 02:58:34;;;;;;;15.23;12.50;;;6.30;99.90;;;;;;5068065;28;20089;-69
2021/11/02 03:01:00;;;;;;;15.00;12.48;;;6.40;99.90;;;;;;5047029;28;20385;-69
2021/11/02 03:03:26;;;;;;;14.68;13.05;;;6.20;99.90;;;;;;5048895;28;20079;-69
2021/11/02 03:05:53;;;;;;;19.33;15.48;;;6.20;99.90;;;;;;5034922;28;20073;-69
2021/11/02 03:08:20;;;;;;;23.60;18.23;;;6.10;99.90;;;;;;5068656;28;20319;-69
2021/11/02 03:10:49;;;;;;;16.33;14.30;;;6.10;99.90;;;;;;5052123;28;20060;-69
2021/11/02 03:13:16;;;;;;;27.42;20.35;;;6.20;99.90;;;;;;5035331;28;20068;-69
2021/11/02 03:15:59;;;;;;;22.35;16.80;;;6.10;99.90;;;;;;5067068;28;20525;-69
2021/11/02 03:49:16;;;;;;;29.08;22.42;;;6.10;99.90;;;;;;5067019;28;20517;-69
2021/11/02 04:30:28;;;;;;;27.87;21.00;;;6.00;99.90;;;;;;5066284;28;20045;-70
2021/11/02 04:58:20;;;;;;;31.48;23.92;;;5.80;99.90;;;;;;5065347;28;20060;-70
2021/11/02 05:48:15;;;;;;;44.80;30.88;;;5.50;99.90;;;;;;5087204;28;20048;-70
2021/11/02 05:51:11;;;;;;;28.20;21.88;;;5.50;99.90;;;;;;5070229;28;20044;-70
2021/11/02 06:01:13;;;;;;;34.65;25.33;;;5.50;99.90;;;;;;5076890;28;20052;-70
2021/11/02 06:03:46;;;;;;;28.97;22.13;;;5.40;99.90;;;;;;5082302;28;20517;-70
2021/11/02 06:09:05;;;;;;;45.63;32.03;;;5.40;99.90;;;;;;5090229;28;20059;-69
2021/11/02 06:28:52;;;;;;;37.90;28.30;;;5.60;99.90;;;;;;5059886;28;20056;-69
2021/11/02 06:31:40;;;;;;;39.23;29.53;;;5.60;99.90;;;;;;5043067;28;20079;-70
2021/11/02 06:34:20;;;;;;;33.88;26.30;;;5.60;99.90;;;;;;5056948;28;20123;-70
2021/11/02 07:19:07;;;;;;;35.70;31.10;;;5.90;99.90;;;;;;5065945;28;20044;-70
2021/11/02 07:24:49;;;;;;;38.27;29.43;;;5.80;99.90;;;;;;5034935;28;20252;-70
2021/11/02 07:27:32;;;;;;;34.30;27.13;;;5.80;99.90;;;;;;5066261;28;20044;-70
2021/11/02 08:46:29;;;;;;;26.45;23.70;;;7.00;99.90;;;;;;5084163;28;20040;-70
2021/11/02 08:48:57;;;;;;;24.92;22.42;;;7.10;99.90;;;;;;5066982;28;20518;-70
2021/11/02 08:51:24;;;;;;;25.50;22.65;;;7.10;99.90;;;;;;5066227;28;20036;-70
2021/11/02 08:53:50;;;;;;;25.67;23.13;;;7.20;99.90;;;;;;5065228;28;20498;-69
2021/11/02 08:56:19;;;;;;;24.58;21.92;;;7.20;99.90;;;;;;5085598;28;20044;-70
2021/11/02 08:58:49;;;;;;;24.73;22.20;;;7.30;99.90;;;;;;5068985;28;20047;-70
2021/11/02 09:01:18;;;;;;;26.67;23.52;;;7.30;99.90;;;;;;5084626;28;20123;-70
2021/11/02 09:03:47;;;;;;;28.27;24.13;;;7.30;99.90;;;;;;5081831;28;20047;-70
2021/11/02 09:06:15;;;;;;;24.85;22.48;;;7.40;99.90;;;;;;5057802;28;20055;-69
2021/11/02 09:09:00;;;;;;;23.73;21.42;;;7.40;99.90;;;;;;5064852;28;20541;-70
2021/11/02 09:11:28;;;;;;;23.80;21.50;;;7.50;99.90;;;;;;5071479;28;20055;-70
2021/11/02 09:13:56;;;;;;;23.77;21.38;;;7.60;99.90;;;;;;5060934;28;20675;-70
2021/11/02 09:16:26;;;;;;;24.58;21.92;;;7.60;99.90;;;;;;5074702;28;20045;-69
2021/11/02 09:18:56;;;;;;;24.58;21.98;;;7.70;99.90;;;;;;5064003;28;20587;-69
2021/11/02 09:21:23;;;;;;;25.08;22.70;;;7.80;99.90;;;;;;5070987;28;20053;-69
2021/11/02 09:23:52;;;;;;;25.33;22.73;;;7.90;99.90;;;;;;5067776;28;20572;-70
2021/11/02 09:26:25;;;;;;;27.73;24.90;;;7.90;99.90;;;;;;5068567;28;20095;-70
2021/11/02 09:28:51;;;;;;;;;;;7.90;99.90;;;;;;5069950;28;20127;-70
2021/11/02 09:31:24;;;;;;;26.83;24.02;;;8.00;99.90;;;;;;5064142;28;19930;-70
2021/11/02 09:33:50;;;;;;;26.88;24.10;;;8.00;99.90;;;;;;5085448;28;20048;-70
2021/11/02 09:36:22;;;;;;;30.48;26.63;;;8.10;99.90;;;;;;5066557;28;20048;-70
2021/11/02 09:38:59;;;;;;;29.65;26.45;;;8.10;99.90;;;;;;5071895;28;20519;-70
2021/11/02 09:41:38;;;;;;;26.05;23.45;;;8.20;99.90;;;;;;5099152;28;20104;-71
2021/11/02 09:44:26;;;;;;;27.27;24.52;;;8.20;99.90;;;;;;5083622;28;20078;-70
2021/11/02 09:47:05;;;;;;;27.80;24.85;;;8.20;99.90;;;;;;5088941;28;20567;-71
2021/11/02 09:49:41;;;;;;;26.33;23.67;;;8.20;99.90;;;;;;5070094;28;20056;-71
2021/11/02 09:52:44;;;;;;;24.38;21.90;;;8.20;99.90;;;;;;5088937;28;20044;-71
2021/11/02 09:55:44;;;;;;;23.50;21.00;;;8.30;99.90;;;;;;5066098;28;20126;-70
2021/11/02 09:58:12;;;;;;;25.83;23.38;;;8.40;99.90;;;;;;5068549;28;20090;-71
2021/11/02 10:00:46;;;;;;;20.83;18.70;;;8.50;99.90;;;;;;5073182;28;20078;-71
2021/11/02 10:03:21;;;;;;;19.90;17.90;;;8.50;99.90;;;;;;5089276;28;20083;-70
2021/11/02 10:05:52;;;;;;;23.30;19.63;;;8.50;99.90;;;;;;5083792;28;20575;-70
2021/11/02 10:08:45;;;;;;;22.58;20.33;;;8.50;99.90;;;;;;5071838;28;20475;-70
2021/11/02 10:11:44;;;;;;;19.98;17.75;;;8.50;99.90;;;;;;5071108;28;20090;-70
2021/11/02 10:14:54;;;;;;;22.27;19.90;;;8.60;99.90;;;;;;5085941;28;20440;-70
2021/11/02 10:17:40;;;;;;;21.20;19.30;;;8.70;99.90;;;;;;5088635;28;20120;-70
2021/11/02 10:20:18;;;;;;;21.58;19.25;;;8.80;99.90;;;;;;5072328;28;20047;-70
2021/11/02 10:23:04;;;;;;;20.20;18.20;;;8.90;99.90;;;;;;5083812;28;20083;-70
2021/11/02 10:25:51;;;;;;;19.98;17.00;;;9.00;99.90;;;;;;5088163;28;20123;-70
2021/11/02 10:28:48;;;;;;;20.38;18.23;;;9.10;99.90;;;;;;5088066;28;20063;-70
2021/11/02 10:31:49;;;;;;;21.48;19.20;;;9.10;99.90;;;;;;5068786;28;20131;-71
2021/11/02 10:34:39;;;;;;;21.98;19.92;;;9.10;99.90;;;;;;5070916;28;20048;-70
2021/11/02 10:37:10;;;;;;;23.08;20.70;;;9.10;99.90;;;;;;5050568;28;20101;-71
2021/11/02 10:39:57;;;;;;;22.33;19.95;;;9.10;99.90;;;;;;5058675;28;20239;-70
2021/11/02 10:42:26;;;;;;;22.83;20.25;;;9.10;99.90;;;;;;5082589;28;20052;-70
2021/11/02 10:44:56;;;;;;;22.70;20.45;;;9.10;99.90;;;;;;5087081;28;20623;-70
2021/11/02 10:47:32;;;;;;;21.25;19.33;;;9.10;99.90;;;;;;5066829;28;20041;-70
2021/11/02 10:50:10;;;;;;;20.63;18.48;;;9.10;99.90;;;;;;5077800;28;20518;-70
2021/11/02 10:52:38;;;;;;;21.48;19.35;;;9.20;99.90;;;;;;5077485;28;20078;-70
2021/11/02 10:55:06;;;;;;;20.70;18.60;;;9.30;99.90;;;;;;5067489;28;20101;-70
2021/11/02 10:57:45;;;;;;;21.00;19.00;;;9.30;99.90;;;;;;5066863;28;20102;-70
2021/11/02 11:00:12;;;;;;;20.20;18.15;;;9.30;99.90;;;;;;5086718;28;20047;-68
2021/11/02 11:02:42;;;;;;;19.60;17.80;;;9.30;99.90;;;;;;5066233;28;20032;-69
2021/11/02 11:05:09;;;;;;;17.20;15.50;;;9.30;99.90;;;;;;5081620;28;20044;-71
2021/11/02 11:07:43;;;;;;;16.42;14.80;;;9.30;99.90;;;;;;5068576;28;20084;-70
2021/11/02 11:10:14;;;;;;;16.38;14.77;;;9.30;99.90;;;;;;5078883;28;20042;-70
2021/11/02 11:12:56;;;;;;;16.08;14.57;;;9.40;99.90;;;;;;5035740;28;20091;-70
2021/11/02 11:15:24;;;;;;;15.20;13.68;;;9.50;99.90;;;;;;5037137;28;20056;-69
2021/11/02 11:18:18;;;;;;;14.82;12.98;;;9.60;99.90;;;;;;5061480;28;20050;-69
2021/11/02 11:20:48;;;;;;;15.15;13.52;;;9.70;99.90;;;;;;5045063;28;20064;-70
2021/11/02 11:23:14;;;;;;;13.90;12.43;;;9.80;99.90;;;;;;5040485;28;20063;-70
2021/11/02 11:25:56;;;;;;;13.85;12.45;;;9.80;99.90;;;;;;5059302;28;20824;-70
2021/11/02 11:28:23;;;;;;;12.90;11.60;;;9.90;99.90;;;;;;5033538;28;20132;-71
2021/11/02 11:30:51;;;;;;;13.65;12.15;;;9.90;99.90;;;;;;5023757;28;20048;-69
2021/11/02 11:33:19;;;;;;;12.95;11.57;;;10.00;99.90;;;;;;5052948;28;20033;-70
2021/11/02 11:35:46;;;;;;;12.25;11.02;;;10.00;99.90;;;;;;5052000;28;20048;-69
2021/11/02 11:38:14;;;;;;;13.68;12.38;;;10.00;99.90;;;;;;5040515;28;20052;-70
2021/11/02 11:40:43;;;;;;;11.90;10.60;;;10.00;99.90;;;;;;5054337;28;20045;-70
2021/11/02 11:43:11;;;;;;;13.77;11.63;;;10.10;99.90;;;;;;5041995;28;20040;-69
2021/11/02 11:45:41;;;;;;;13.55;10.88;;;10.10;99.90;;;;;;5051888;28;20045;-72
2021/11/02 11:48:20;;;;;;;13.77;12.23;;;10.00;99.90;;;;;;5052097;28;20644;-69
2021/11/02 11:50:47;;;;;;;12.63;9.85;;;10.00;99.90;;;;;;5044294;28;20124;-70
2021/11/02 11:53:18;;;;;;;11.52;10.32;;;9.90;99.90;;;;;;5038904;28;20041;-70
2021/11/02 11:55:49;;;;;;;11.90;10.65;;;9.90;99.90;;;;;;5031329;28;20708;-71
2021/11/02 11:58:15;;;;;;;;;;;9.80;99.90;;;;;;5050056;28;20049;-70
2021/11/02 12:00:53;;;;;;;12.63;9.75;;;9.80;99.90;;;;;;5049038;28;19927;-69
2021/11/02 12:03:57;;;;;;;13.10;10.70;;;9.70;99.90;;;;;;5056594;28;20443;-70
2021/11/02 12:06:33;;;;;;;11.70;10.48;;;9.70;99.90;;;;;;5032444;28;20045;-69
2021/11/02 12:09:16;;;;;;;11.80;10.48;;;9.70;99.90;;;;;;5051738;28;20066;-69
2021/11/02 12:11:42;;;;;;;11.65;10.48;;;9.70;99.90;;;;;;5055976;28;20057;-69
2021/11/02 12:14:11;;;;;;;12.90;11.15;;;9.60;99.90;;;;;;5028166;28;20434;-69
2021/11/02 12:16:43;;;;;;;11.95;9.70;;;9.70;99.90;;;;;;5033518;28;20045;-72
2021/11/02 12:19:13;;;;;;;12.90;10.20;;;9.70;99.90;;;;;;5055490;28;20041;-70
2021/11/02 12:21:40;;;;;;;;;;;9.70;99.90;;;;;;5043201;28;20142;-69
2021/11/02 12:24:10;;;;;;;12.10;9.40;;;9.70;99.90;;;;;;5095492;28;19924;-70
2021/11/02 12:26:40;;;;;;;12.13;9.55;;;9.70;99.90;;;;;;5060512;28;20056;-70
2021/11/02 12:29:15;;;;;;;13.35;9.80;;;9.60;99.90;;;;;;5034383;28;20542;-70
2021/11/02 12:31:45;;;;;;;10.52;9.30;;;9.60;99.90;;;;;;5064587;28;20041;-70
2021/11/02 12:34:14;;;;;;;11.80;9.90;;;9.70;99.90;;;;;;5051162;28;20048;-70
2021/11/02 12:36:49;;;;;;;11.65;10.45;;;9.70;99.90;;;;;;5065827;28;20058;-70
2021/11/02 12:39:19;;;;;;;13.98;11.05;;;9.80;99.90;;;;;;5050183;28;20078;-70
2021/11/02 12:41:53;;;;;;;12.75;11.10;;;9.80;99.90;;;;;;5052926;28;20431;-70
2021/11/02 12:44:27;;;;;;;11.57;10.38;;;9.90;99.90;;;;;;5046864;28;20178;-70
2021/11/02 12:46:54;;;;;;;11.15;10.05;;;9.90;99.90;;;;;;5047425;28;20060;-70
2021/11/02 12:49:54;;;;;;;11.32;9.98;;;10.00;99.90;;;;;;5041367;28;20041;-70
2021/11/02 12:52:26;;;;;;;10.45;9.45;;;10.00;99.90;;;;;;5046913;28;20148;-70
2021/11/02 12:55:01;;;;;;;12.25;9.75;;;10.10;99.90;;;;;;5048550;28;20056;-70
2021/11/02 12:57:39;;;;;;;12.80;10.10;;;10.00;99.90;;;;;;5050295;28;20487;-70
2021/11/02 13:00:13;;;;;;;11.23;9.98;;;10.00;99.90;;;;;;5050258;28;20198;-70
2021/11/02 13:02:42;;;;;;;11.27;10.15;;;10.00;99.90;;;;;;5065333;28;20451;-70
2021/11/02 13:05:24;;;;;;;12.02;10.70;;;10.00;99.90;;;;;;5050884;28;20056;-70
2021/11/02 13:08:04;;;;;;;13.15;9.85;;;9.90;99.90;;;;;;5050587;28;20105;-70
2021/11/02 13:10:31;;;;;;;11.63;10.43;;;10.00;99.90;;;;;;5072406;28;20063;-70
2021/11/02 13:13:09;;;;;;;11.73;10.52;;;10.00;99.90;;;;;;5077502;28;20078;-70
2021/11/02 13:15:48;;;;;;;11.48;9.57;;;9.90;99.90;;;;;;5073394;28;20517;-70
2021/11/02 13:18:32;;;;;;;13.85;10.32;;;9.80;99.90;;;;;;5094510;28;20043;-70
2021/11/02 13:21:29;;;;;;;12.38;9.95;;;9.80;99.90;;;;;;5078062;28;20401;-70
2021/11/02 13:24:02;;;;;;;13.80;10.60;;;9.70;99.90;;;;;;5085026;28;20260;-70
2021/11/02 13:26:32;;;;;;;14.52;11.13;;;9.70;99.90;;;;;;5093344;28;20058;-70
2021/11/02 13:29:14;;;;;;;12.95;10.85;;;9.70;99.90;;;;;;5076723;27;20043;-70
2021/11/02 13:31:41;;;;;;;14.40;10.98;;;9.70;99.90;;;;;;5080991;28;20035;-70
2021/11/02 13:34:10;;;;;;;14.13;10.88;;;9.70;99.90;;;;;;5095781;27;20592;-70
2021/11/02 13:36:36;;;;;;;11.05;9.85;;;9.70;99.90;;;;;;5082173;27;20039;-70
2021/11/02 13:39:04;;;;;;;13.88;9.05;;;9.80;99.90;;;;;;5097446;28;20044;-70
2021/11/02 13:41:33;;;;;;;12.07;10.48;;;9.70;99.90;;;;;;5074454;28;20790;-69
2021/11/02 13:44:10;;;;;;;11.00;9.77;;;9.80;99.90;;;;;;5088334;28;20551;-70
2021/11/02 13:46:40;;;;;;;12.38;11.18;;;9.80;99.90;;;;;;5086866;28;20139;-70
2021/11/02 13:49:08;;;;;;;12.70;11.40;;;9.70;99.90;;;;;;5072643;28;20482;-70
2021/11/02 13:51:35;;;;;;;13.00;11.70;;;9.70;99.90;;;;;;5080849;28;20042;-70
2021/11/02 13:54:02;;;;;;;13.75;10.80;;;9.70;99.90;;;;;;5072173;28;20040;-70
2021/11/02 13:56:30;;;;;;;11.10;10.00;;;9.70;99.90;;;;;;5083467;28;20044;-70
2021/11/02 13:58:58;;;;;;;11.90;10.48;;;9.70;99.90;;;;;;5123434;27;20096;-70
2021/11/02 14:01:42;;;;;;;10.73;9.52;;;9.80;99.90;;;;;;5069272;28;20070;-70
2021/11/02 14:04:31;;;;;;;11.70;9.25;;;9.80;99.90;;;;;;5071507;28;20054;-69
2021/11/02 14:07:09;;;;;;;10.07;9.00;;;9.80;99.90;;;;;;5081702;28;20052;-70
2021/11/02 14:10:13;;;;;;;10.80;8.52;;;9.80;99.90;;;;;;5083909;28;20048;-70
2021/11/02 14:12:53;;;;;;;11.27;8.10;;;9.80;99.90;;;;;;5020613;28;20042;-70
2021/11/02 14:15:31;;;;;;;10.50;7.82;;;9.80;99.90;;;;;;5085776;28;20060;-70
2021/11/02 14:17:57;;;;;;;9.63;8.55;;;9.80;99.90;;;;;;5088267;28;20054;-70
2021/11/02 14:20:49;;;;;;;9.55;8.55;;;9.80;99.90;;;;;;5066623;28;20482;-70
2021/11/02 14:23:33;;;;;;;11.15;9.05;;;9.80;99.90;;;;;;5071708;28;20044;-70
2021/11/02 14:26:19;;;;;;;9.45;8.50;;;9.80;99.90;;;;;;5103580;27;20046;-70
2021/11/02 14:28:58;;;;;;;9.07;8.20;;;9.80;99.90;;;;;;5109603;27;20085;-70
2021/11/02 14:31:40;;;;;;;9.50;8.50;;;9.80;99.90;;;;;;5096482;28;20047;-70
2021/11/02 14:34:10;;;;;;;9.55;8.32;;;9.80;99.90;;;;;;5091587;28;20673;-70
2021/11/02 14:36:40;;;;;;;10.02;9.02;;;9.80;99.90;;;;;;5091039;28;20051;-70
2021/11/02 14:39:13;;;;;;;10.63;8.93;;;9.80;99.90;;;;;;5099277;28;20059;-70
2021/11/02 14:41:49;;;;;;;10.95;8.18;;;9.80;99.90;;;;;;5058232;27;20044;-70
2021/11/02 14:44:24;;;;;;;9.20;8.30;;;9.80;99.90;;;;;;5111008;27;20035;-70
2021/11/02 14:46:51;;;;;;;10.07;9.07;;;9.70;99.90;;;;;;5094797;27;20111;-70
2021/11/02 14:49:30;;;;;;;9.98;8.07;;;9.70;99.90;;;;;;5095733;28;20051;-69
2021/11/02 14:51:57;;;;;;;9.27;8.38;;;9.70;99.90;;;;;;5098819;27;20493;-70
2021/11/02 14:54:29;;;;;;;11.98;9.20;;;9.60;99.90;;;;;;5097589;28;20077;-70
2021/11/02 14:57:18;;;;;;;10.23;7.68;;;9.60;99.90;;;;;;5095730;27;20049;-70
2021/11/02 14:59:58;;;;;;;12.68;8.70;;;9.50;99.90;;;;;;5093229;28;20051;-70
2021/11/02 15:02:44;;;;;;;11.00;9.13;;;9.50;99.90;;;;;;5071637;27;20054;-69
2021/11/02 15:05:22;;;;;;;10.18;9.13;;;9.50;99.90;;;;;;5060963;27;20050;-69
2021/11/02 15:07:51;;;;;;;7.93;6.85;;;9.50;99.90;;;;;;5091048;27;20441;-69
2021/11/02 15:10:19;;;;;;;9.80;8.65;;;9.50;99.90;;;;;;5068674;28;20065;-70
2021/11/02 15:12:47;;;;;;;10.30;8.68;;;9.50;99.90;;;;;;5088807;28;20044;-70
2021/11/02 15:15:13;;;;;;;25.17;20.90;;;9.50;99.90;;;;;;5073612;28;20058;-69
2021/11/02 15:17:39;;;;;;;15.23;13.35;;;9.50;99.90;;;;;;5107119;27;20047;-70
2021/11/02 15:20:05;;;;;;;16.55;15.07;;;9.50;99.90;;;;;;5089476;28;20379;-70
2021/11/02 15:22:31;;;;;;;11.15;10.00;;;9.40;99.90;;;;;;5069222;27;20047;-70
2021/11/02 15:25:04;;;;;;;13.43;10.98;;;9.40;99.90;;;;;;5054245;27;20051;-69
2021/11/02 15:27:35;;;;;;;12.27;10.45;;;9.40;99.90;;;;;;5066982;27;20127;-70
2021/11/02 15:30:10;;;;;;;18.73;16.92;;;9.40;99.90;;;;;;5080089;28;20043;-69
2021/11/02 15:32:37;;;;;;;12.25;10.95;;;9.40;99.90;;;;;;5066532;28;20108;-70
2021/11/02 15:35:06;;;;;;;13.70;12.35;;;9.30;99.90;;;;;;5062342;28;20051;-69
2021/11/02 15:37:41;;;;;;;11.48;10.27;;;9.30;99.90;;;;;;5076416;28;20059;-69
2021/11/02 15:40:29;;;;;;;12.45;9.80;;;9.30;99.90;;;;;;5076693;28;20036;-70
2021/11/02 15:42:57;;;;;;;10.77;9.77;;;9.30;99.90;;;;;;5076985;28;20086;-70
2021/11/02 15:45:30;;;;;;;10.43;9.38;;;9.20;99.90;;;;;;5073879;28;20044;-70
2021/11/02 15:48:10;;;;;;;12.70;11.50;;;9.20;99.90;;;;;;5076516;28;20086;-70
2021/11/02 15:50:40;;;;;;;9.77;8.77;;;9.20;99.90;;;;;;5059353;28;20048;-70
2021/11/02 15:53:09;;;;;;;;;;;9.20;99.90;;;;;;5065758;28;20102;-69
2021/11/02 15:55:36;;;;;;;13.45;10.50;;;9.10;99.90;;;;;;5077244;28;19927;-69
2021/11/02 15:58:06;;;;;;;11.27;10.07;;;9.10;99.90;;;;;;5075607;28;20293;-70
2021/11/02 16:00:34;;;;;;;11.85;10.02;;;9.10;99.90;;;;;;5109239;27;20055;-70
2021/11/02 16:03:01;;;;;;;10.10;9.20;;;9.00;99.90;;;;;;5111275;27;20393;-71
2021/11/02 16:05:30;;;;;;;11.45;9.73;;;9.00;99.90;;;;;;5056791;28;20497;-70
2021/11/02 16:07:57;;;;;;;10.50;9.50;;;9.00;99.90;;;;;;5074265;28;20690;-70
2021/11/02 16:10:29;;;;;;;10.70;9.60;;;9.00;99.90;;;;;;5082114;28;20036;-70
2021/11/02 16:12:56;;;;;;;11.35;10.02;;;9.00;99.90;;;;;;5048563;28;20080;-70
2021/11/02 16:15:34;;;;;;;11.90;9.85;;;9.00;99.90;;;;;;5054500;28;20066;-70
2021/11/02 16:18:04;;;;;;;9.05;8.23;;;9.00;99.90;;;;;;5035020;28;20048;-70
2021/11/02 16:20:36;;;;;;;10.13;9.07;;;8.90;99.90;;;;;;5030615;28;20041;-70
2021/11/02 16:23:10;;;;;;;13.48;11.10;;;8.90;99.90;;;;;;5049951;28;20404;-70
2021/11/02 16:25:43;;;;;;;10.43;9.43;;;8.90;99.90;;;;;;5051107;28;20053;-70
2021/11/02 16:28:15;;;;;;;12.23;10.70;;;8.90;99.90;;;;;;5038316;28;20052;-70
2021/11/02 16:30:53;;;;;;;10.13;9.10;;;8.90;99.90;;;;;;5065369;28;20052;-70
2021/11/02 16:33:40;;;;;;;10.43;9.32;;;8.90;99.90;;;;;;5060896;28;20044;-70
2021/11/02 16:36:24;;;;;;;11.13;10.10;;;8.90;99.90;;;;;;5050361;28;20382;-70
2021/11/02 16:38:52;;;;;;;10.82;9.73;;;8.80;99.90;;;;;;5049306;28;20053;-70
2021/11/02 16:41:33;;;;;;;15.02;11.10;;;8.80;99.90;;;;;;5058833;28;20170;-70
2021/11/02 16:44:04;;;;;;;12.23;11.02;;;8.80;99.90;;;;;;5061129;28;20125;-70
2021/11/02 16:46:43;;;;;;;12.23;10.55;;;8.80;99.90;;;;;;5053285;28;20045;-70
2021/11/02 16:49:27;;;;;;;13.52;11.43;;;8.70;99.90;;;;;;5047277;28;20148;-70
2021/11/02 16:51:54;;;;;;;13.65;12.25;;;8.70;99.90;;;;;;5050375;28;20471;-70
2021/11/02 16:54:26;;;;;;;12.88;11.57;;;8.70;99.90;;;;;;5038898;28;20047;-70
2021/11/02 16:57:22;;;;;;;12.48;11.18;;;8.70;99.90;;;;;;5062644;28;20051;-70
2021/11/02 16:59:53;;;;;;;12.63;11.32;;;8.70;99.90;;;;;;5036655;28;20076;-70
2021/11/02 17:02:24;;;;;;;13.35;12.02;;;8.70;99.90;;;;;;5046592;28;20041;-70
2021/11/02 17:05:20;;;;;;;13.98;11.77;;;8.70;99.90;;;;;;5051962;28;20060;-70
2021/11/02 17:08:10;;;;;;;13.73;12.32;;;8.70;99.90;;;;;;5062635;28;20045;-70
2021/11/02 17:10:49;;;;;;;14.90;13.40;;;8.70;99.90;;;;;;5040838;28;20698;-70
2021/11/02 17:13:27;;;;;;;14.60;12.38;;;8.60;99.90;;;;;;5054408;28;20381;-70
2021/11/02 17:16:09;;;;;;;13.95;12.55;;;8.70;99.90;;;;;;5051690;28;20045;-70
2021/11/02 17:18:57;;;;;;;12.80;11.50;;;8.60;99.90;;;;;;5047244;28;20045;-70
2021/11/02 17:21:41;;;;;;;15.23;12.50;;;8.60;99.90;;;;;;5032803;28;20079;-70
2021/11/02 17:24:09;;;;;;;14.50;13.10;;;8.60;99.90;;;;;;5048352;28;20456;-71
2021/11/02 17:26:36;;;;;;;15.43;13.18;;;8.60;99.90;;;;;;5045672;28;20043;-70
2021/11/02 17:29:03;;;;;;;14.02;12.63;;;8.60;99.90;;;;;;5056350;28;20109;-70
2021/11/02 17:31:37;;;;;;;15.43;12.63;;;8.60;99.90;;;;;;5035574;28;20069;-70
2021/11/02 17:34:11;;;;;;;14.63;12.05;;;8.60;99.90;;;;;;5047831;28;20063;-70
2021/11/02 17:36:37;;;;;;;16.70;13.77;;;8.60;99.90;;;;;;5039560;28;20048;-70
2021/11/02 17:39:04;;;;;;;13.45;12.15;;;8.60;99.90;;;;;;5033275;28;20102;-70
2021/11/02 17:41:32;;;;;;;12.95;11.70;;;8.60;99.90;;;;;;5049275;28;20037;-69
2021/11/02 17:44:02;;;;;;;13.35;12.05;;;8.60;99.90;;;;;;5037971;28;20052;-73
2021/11/02 17:46:28;;;;;;;13.15;11.85;;;8.60;99.90;;;;;;5038332;28;20515;-72
2021/11/02 17:48:58;;;;;;;13.35;11.95;;;8.60;99.90;;;;;;5044087;28;20049;-70
2021/11/02 17:51:25;;;;;;;17.02;13.32;;;8.60;99.90;;;;;;5041122;28;20875;-70
2021/11/02 17:53:51;;;;;;;15.13;13.63;;;8.60;99.90;;;;;;5042144;28;20045;-70
2021/11/02 17:56:19;;;;;;;14.73;13.15;;;8.60;99.90;;;;;;5053017;28;20048;-70
2021/11/02 17:58:46;;;;;;;13.55;12.13;;;8.60;99.90;;;;;;5046310;28;20048;-70
2021/11/02 18:01:13;;;;;;;15.70;14.20;;;8.60;99.90;;;;;;5053271;28;20453;-70
2021/11/02 18:03:41;;;;;;;14.90;13.40;;;8.60;99.90;;;;;;5052453;28;20165;-70
2021/11/02 18:06:10;;;;;;;22.00;18.08;;;8.60;99.90;;;;;;5062248;28;20052;-70